Time;durP1;ratioP1;P1;durP2;ratioP2;P2;SDS_P1;SDS_P2;PMS_P1;PMS_P2;Temp;Humidity;BMP_temperature;BMP_pressure;BME280_temperature;BME280_humidity;BME280_pressure;Samples;Min_cycle;Max_cycle;Signal;HPM_P1;HPM_P2
2021/12/04 00:01:50;;;;;;;16.63;8.45;;;5.20;99.90;;;;;;5074235;28;20029;-41
2021/12/04 00:04:28;;;;;;;17.98;7.90;;;5.30;99.90;;;;;;5074232;28;20024;-40
2021/12/04 00:06:54;;;;;;;18.20;7.80;;;5.20;99.90;;;;;;5073507;28;20360;-40
2021/12/04 00:09:22;;;;;;;16.98;7.03;;;5.30;99.90;;;;;;5074237;28;20063;-40
2021/12/04 00:11:54;;;;;;;19.07;8.17;;;5.20;99.90;;;;;;5073615;28;20043;-40
2021/12/04 00:14:19;;;;;;;14.02;7.28;;;5.20;99.90;;;;;;5074087;28;20058;-40
2021/12/04 00:16:45;;;;;;;14.70;7.07;;;5.30;99.90;;;;;;5073886;28;20024;-40
2021/12/04 00:19:11;;;;;;;24.17;9.65;;;5.30;99.90;;;;;;5073507;28;20055;-39
2021/12/04 00:21:37;;;;;;;19.13;7.90;;;5.30;99.90;;;;;;5073908;28;20061;-39
2021/12/04 00:24:03;;;;;;;20.23;7.53;;;5.30;99.90;;;;;;5073895;28;20103;-39
2021/12/04 00:26:28;;;;;;;20.88;8.45;;;5.30;99.90;;;;;;5089804;28;20017;-40
2021/12/04 00:28:54;;;;;;;25.33;8.60;;;5.30;99.90;;;;;;5093993;28;20036;-40
2021/12/04 00:31:19;;;;;;;15.60;7.82;;;5.30;99.90;;;;;;5093925;28;20016;-40
2021/12/04 00:33:46;;;;;;;18.17;7.93;;;5.20;99.90;;;;;;5093412;28;20103;-39
2021/12/04 00:36:34;;;;;;;16.02;7.65;;;5.30;99.90;;;;;;5094045;28;20058;-39
2021/12/04 00:49:59;;;;;;;17.15;7.43;;;5.30;99.90;;;;;;5093932;28;20116;-40
2021/12/04 00:52:24;;;;;;;15.02;7.68;;;5.30;99.90;;;;;;5093716;28;20103;-40
2021/12/04 00:54:50;;;;;;;12.80;7.30;;;5.30;99.90;;;;;;5089145;28;20457;-41
2021/12/04 00:57:16;;;;;;;21.00;8.55;;;5.20;99.90;;;;;;5073390;28;20438;-39
2021/12/04 00:59:42;;;;;;;21.83;7.95;;;5.30;99.90;;;;;;5073187;28;20101;-40
2021/12/04 01:02:08;;;;;;;16.98;6.85;;;5.30;99.90;;;;;;5072603;28;20115;-41
2021/12/04 01:04:33;;;;;;;19.38;8.20;;;5.30;99.90;;;;;;5073135;28;20100;-39
2021/12/04 01:06:59;;;;;;;18.80;7.68;;;5.30;99.90;;;;;;5073031;28;20017;-41
2021/12/04 01:09:25;;;;;;;17.17;7.90;;;5.30;99.90;;;;;;5072739;28;20486;-40
2021/12/04 01:11:53;;;;;;;16.88;7.75;;;5.30;99.90;;;;;;5073060;28;20550;-42
2021/12/04 01:14:23;;;;;;;14.73;7.13;;;5.30;99.90;;;;;;5073103;28;20052;-41
2021/12/04 01:16:49;;;;;;;17.80;7.13;;;5.30;99.90;;;;;;5072511;28;20032;-41
2021/12/04 01:19:18;;;;;;;18.45;8.38;;;5.30;99.90;;;;;;5072829;28;20017;-39
2021/12/04 01:21:43;;;;;;;18.38;7.00;;;5.30;99.90;;;;;;5072894;28;20043;-40
2021/12/04 01:24:09;;;;;;;18.50;7.70;;;5.30;99.90;;;;;;5072458;28;20025;-41
2021/12/04 01:26:35;;;;;;;14.82;7.28;;;5.30;99.90;;;;;;5073938;28;20340;-40
2021/12/04 01:29:00;;;;;;;20.23;8.10;;;5.20;99.90;;;;;;5072869;28;20028;-41
2021/12/04 01:31:26;;;;;;;18.90;7.07;;;5.30;99.90;;;;;;5072512;28;20031;-41
2021/12/04 01:33:52;;;;;;;17.00;6.97;;;5.30;99.90;;;;;;5072677;28;20056;-40
2021/12/04 01:36:17;;;;;;;19.50;6.47;;;5.30;99.90;;;;;;5072489;28;20085;-40
2021/12/04 01:38:43;;;;;;;16.92;7.68;;;5.30;99.90;;;;;;5072776;28;20420;-41
2021/12/04 01:41:09;;;;;;;16.17;7.47;;;5.30;99.90;;;;;;5072825;28;20036;-39
2021/12/04 01:43:35;;;;;;;17.90;6.43;;;5.30;99.90;;;;;;5072345;28;20040;-41
2021/12/04 01:46:01;;;;;;;17.85;6.50;;;5.30;99.90;;;;;;5072610;28;20384;-41
2021/12/04 01:48:26;;;;;;;18.15;7.45;;;5.30;99.90;;;;;;5072709;28;20017;-40
2021/12/04 01:50:54;;;;;;;18.73;7.75;;;5.30;99.90;;;;;;5071965;28;20143;-40
2021/12/04 01:53:20;;;;;;;16.60;7.50;;;5.30;99.90;;;;;;5072812;28;20028;-40
2021/12/04 01:55:46;;;;;;;16.27;7.05;;;5.30;99.90;;;;;;5085109;28;20044;-40
2021/12/04 01:58:12;;;;;;;15.68;7.15;;;5.30;99.90;;;;;;5092349;28;20026;-42
2021/12/04 02:00:40;;;;;;;18.40;7.35;;;5.30;99.90;;;;;;5092765;28;20020;-40
2021/12/04 02:03:08;;;;;;;13.38;6.70;;;5.30;99.90;;;;;;5092871;28;20020;-41
2021/12/04 02:05:38;;;;;;;17.30;6.78;;;5.30;99.90;;;;;;5092334;28;20479;-40
2021/12/04 02:08:05;;;;;;;17.38;7.28;;;5.30;99.90;;;;;;5095116;28;20024;-40
2021/12/04 02:10:30;;;;;;;16.17;6.22;;;5.30;99.90;;;;;;5096853;28;20020;-40
2021/12/04 02:12:56;;;;;;;13.20;6.55;;;5.30;99.90;;;;;;5096117;28;20073;-40
2021/12/04 02:15:21;;;;;;;14.45;7.03;;;5.30;99.90;;;;;;5096595;28;20103;-40
2021/12/04 02:17:49;;;;;;;17.25;7.00;;;5.30;99.90;;;;;;5096535;28;20020;-40
2021/12/04 02:20:21;;;;;;;15.50;7.40;;;5.30;99.90;;;;;;5095820;28;20467;-39
2021/12/04 02:22:48;;;;;;;18.02;6.72;;;5.30;99.90;;;;;;5096307;28;20028;-39
2021/12/04 02:25:14;;;;;;;14.65;6.85;;;5.30;99.90;;;;;;5087776;28;20047;-40
2021/12/04 02:27:40;;;;;;;9.98;5.63;;;5.30;99.90;;;;;;5075565;28;20024;-41
2021/12/04 02:30:13;;;;;;;16.67;6.65;;;5.30;99.90;;;;;;5076014;28;20050;-41
2021/12/04 02:32:39;;;;;;;12.60;6.53;;;5.30;99.90;;;;;;5075583;28;20499;-42
2021/12/04 02:35:07;;;;;;;10.93;5.78;;;5.30;99.90;;;;;;5075873;28;20025;-41
2021/12/04 02:37:35;;;;;;;14.65;6.50;;;5.30;99.90;;;;;;5075942;28;20051;-40
2021/12/04 02:40:01;;;;;;;15.38;5.80;;;5.30;99.90;;;;;;5075245;28;20059;-40
2021/12/04 02:42:30;;;;;;;11.88;6.05;;;5.40;99.90;;;;;;5075805;28;20099;-39
2021/12/04 02:44:57;;;;;;;;;;;5.40;99.90;;;;;;5076159;28;20108;-40
2021/12/04 02:47:22;;;;;;;9.65;5.15;;;5.40;99.90;;;;;;5075397;28;20014;-41
2021/12/04 02:49:48;;;;;;;13.77;5.85;;;5.30;99.90;;;;;;5075666;28;20020;-40
2021/12/04 02:52:14;;;;;;;11.73;5.97;;;5.40;99.90;;;;;;5075764;28;20400;-41
2021/12/04 02:54:41;;;;;;;14.00;5.22;;;5.40;99.90;;;;;;5078060;28;20044;-40
2021/12/04 02:57:11;;;;;;;10.98;5.15;;;5.30;99.90;;;;;;5095444;28;20032;-42
2021/12/04 02:59:38;;;;;;;12.20;5.50;;;5.30;99.90;;;;;;5095815;28;20077;-40
2021/12/04 03:02:05;;;;;;;10.15;4.85;;;5.30;99.90;;;;;;5095106;28;20035;-41
2021/12/04 03:04:32;;;;;;;12.05;5.45;;;5.30;99.90;;;;;;5095794;28;20123;-39
2021/12/04 03:06:57;;;;;;;8.95;5.38;;;5.30;99.90;;;;;;5095518;28;20024;-42
2021/12/04 03:09:23;;;;;;;7.22;4.38;;;5.30;99.90;;;;;;5095082;28;20390;-41
2021/12/04 03:11:49;;;;;;;9.13;4.80;;;5.30;99.90;;;;;;5095422;28;20019;-40
2021/12/04 03:14:17;;;;;;;8.65;5.15;;;5.30;99.90;;;;;;5095510;28;20031;-40
2021/12/04 03:16:43;;;;;;;8.57;4.53;;;5.30;99.90;;;;;;5094845;28;20478;-40
2021/12/04 03:19:09;;;;;;;8.75;4.35;;;5.30;99.90;;;;;;5094070;28;20382;-41
2021/12/04 03:21:37;;;;;;;9.02;4.68;;;5.30;99.90;;;;;;5093427;28;20040;-40
2021/12/04 03:24:06;;;;;;;9.10;4.53;;;5.30;99.90;;;;;;5094935;28;20020;-40
2021/12/04 03:26:31;;;;;;;9.15;4.57;;;5.30;99.90;;;;;;5095279;28;20046;-43
2021/12/04 03:29:01;;;;;;;11.30;5.35;;;5.30;99.90;;;;;;5094680;28;20387;-40
2021/12/04 03:42:13;;;;;;;8.32;4.47;;;5.20;99.90;;;;;;5095060;28;20039;-40
2021/12/04 03:44:40;;;;;;;11.15;5.00;;;5.20;99.90;;;;;;5094423;28;20024;-41
2021/12/04 03:47:07;;;;;;;8.60;4.63;;;5.20;99.90;;;;;;5094724;28;20020;-45
2021/12/04 03:49:33;;;;;;;8.45;4.30;;;5.20;99.90;;;;;;5094816;28;20100;-41
2021/12/04 03:51:58;;;;;;;9.55;4.55;;;5.20;99.90;;;;;;5073529;28;20529;-41
2021/12/04 03:54:24;;;;;;;10.02;4.85;;;5.20;99.90;;;;;;5094108;28;20032;-40
2021/12/04 03:57:02;;;;;;;9.30;4.22;;;5.20;99.90;;;;;;5094118;28;20036;-45
2021/12/04 03:59:28;;;;;;;;;;;5.20;99.90;;;;;;5095146;28;20034;-41
2021/12/04 04:01:53;;;;;;;9.75;4.55;;;5.20;99.90;;;;;;5094430;28;20006;-40
2021/12/04 04:04:19;;;;;;;9.82;4.88;;;5.20;99.90;;;;;;5094168;28;20494;-40
2021/12/04 04:06:44;;;;;;;9.05;4.40;;;5.20;99.90;;;;;;5094510;28;20028;-41
2021/12/04 04:09:10;;;;;;;8.10;3.55;;;5.20;99.90;;;;;;5094458;28;20028;-40
2021/12/04 04:11:36;;;;;;;10.43;5.15;;;5.20;99.90;;;;;;5093921;28;20023;-40
2021/12/04 04:14:04;;;;;;;9.65;4.43;;;5.20;99.90;;;;;;5094251;28;20020;-42
2021/12/04 04:16:30;;;;;;;11.07;4.75;;;5.20;99.90;;;;;;5094241;28;20063;-41
2021/12/04 04:18:56;;;;;;;8.60;4.05;;;5.20;99.90;;;;;;5093636;28;20028;-42
2021/12/04 04:21:21;;;;;;;9.88;4.32;;;5.20;99.90;;;;;;5084454;28;20032;-40
2021/12/04 04:23:47;;;;;;;7.88;4.00;;;5.20;99.90;;;;;;5073835;28;20037;-41
2021/12/04 04:26:13;;;;;;;10.10;4.70;;;5.20;99.90;;;;;;5074443;28;20464;-39
2021/12/04 04:28:38;;;;;;;8.73;4.90;;;5.20;99.90;;;;;;5073737;28;20024;-40
2021/12/04 04:31:05;;;;;;;9.10;4.55;;;5.20;99.90;;;;;;5073469;28;20020;-43
2021/12/04 04:33:36;;;;;;;9.15;5.10;;;5.20;99.90;;;;;;5073361;28;20029;-40
2021/12/04 04:39:01;;;;;;;8.05;4.35;;;5.30;99.90;;;;;;5073956;28;20375;-41
2021/12/04 05:00:48;;;;;;;9.48;5.18;;;5.30;99.90;;;;;;5093062;28;20367;-41
2021/12/04 05:11:22;;;;;;;9.70;3.78;;;5.40;99.90;;;;;;5084740;28;20036;-40
2021/12/04 05:13:48;;;;;;;9.50;4.45;;;5.30;99.90;;;;;;5073119;28;20081;-40
2021/12/04 05:16:15;;;;;;;10.32;4.60;;;5.40;99.90;;;;;;5072709;28;20017;-42
2021/12/04 05:18:57;;;;;;;7.43;3.75;;;5.30;99.90;;;;;;5072775;28;20025;-40
2021/12/04 05:21:23;;;;;;;7.25;3.95;;;5.40;99.90;;;;;;5072324;28;20468;-41
2021/12/04 05:23:52;;;;;;;9.85;4.28;;;5.40;99.90;;;;;;5072978;28;20021;-40
2021/12/04 05:26:19;;;;;;;;;;;5.40;99.90;;;;;;5073411;28;20055;-41
2021/12/04 05:28:45;;;;;;;8.57;4.05;;;5.40;99.90;;;;;;5072359;28;19915;-42
2021/12/04 05:31:11;;;;;;;7.75;3.92;;;5.40;99.90;;;;;;5072928;28;20059;-40
2021/12/04 05:33:39;;;;;;;10.00;4.50;;;5.40;99.90;;;;;;5072951;28;20472;-41
2021/12/04 05:36:05;;;;;;;8.18;4.15;;;5.40;99.90;;;;;;5072371;28;20085;-40
2021/12/04 05:38:31;;;;;;;8.88;4.53;;;5.40;99.90;;;;;;5072906;28;20095;-39
2021/12/04 05:40:57;;;;;;;10.07;4.60;;;5.40;99.90;;;;;;5082410;28;20485;-40
2021/12/04 05:43:23;;;;;;;8.35;3.95;;;5.50;99.90;;;;;;5095570;28;20016;-40
2021/12/04 05:45:55;;;;;;;8.38;4.53;;;5.50;99.90;;;;;;5097214;28;20028;-41
2021/12/04 05:51:19;;;;;;;7.82;4.15;;;5.50;99.90;;;;;;5096484;28;20040;-40
2021/12/04 05:56:14;;;;;;;;;;;5.50;99.90;;;;;;5097157;28;20048;-39
2021/12/04 05:58:39;;;;;;;6.90;3.78;;;5.50;99.90;;;;;;5096515;28;19915;-41
2021/12/04 06:01:06;;;;;;;6.75;3.70;;;5.50;99.90;;;;;;5096852;28;20477;-41
2021/12/04 06:03:33;;;;;;;8.10;4.13;;;5.50;99.90;;;;;;5096402;28;20016;-40
2021/12/04 06:05:58;;;;;;;8.73;4.20;;;5.50;99.90;;;;;;5096768;28;20391;-41
2021/12/04 06:08:24;;;;;;;8.48;4.55;;;5.50;99.90;;;;;;5096844;28;20024;-40
2021/12/04 06:10:50;;;;;;;8.43;4.20;;;5.50;99.90;;;;;;5087023;28;20028;-40
2021/12/04 06:13:16;;;;;;;8.05;3.83;;;5.50;99.90;;;;;;5076402;28;20029;-41
2021/12/04 06:15:42;;;;;;;9.57;4.22;;;5.50;99.90;;;;;;5076342;28;20024;-40
2021/12/04 06:18:08;;;;;;;7.72;4.13;;;5.50;99.90;;;;;;5075901;28;20158;-40
2021/12/04 06:23:20;;;;;;;10.35;5.03;;;5.50;99.90;;;;;;5076514;28;20055;-40
2021/12/04 06:25:46;;;;;;;8.05;3.60;;;5.50;99.90;;;;;;5075606;28;20019;-39
2021/12/04 06:28:12;;;;;;;8.93;4.50;;;5.50;99.90;;;;;;5076187;28;20052;-41
2021/12/04 06:30:39;;;;;;;7.90;3.80;;;5.50;99.90;;;;;;5076116;28;20500;-39
2021/12/04 06:33:07;;;;;;;9.60;4.70;;;5.50;99.90;;;;;;5075421;28;20036;-40
2021/12/04 06:35:33;;;;;;;9.70;4.80;;;5.50;99.90;;;;;;5075973;28;20103;-40
2021/12/04 06:38:00;;;;;;;11.52;4.80;;;5.50;99.90;;;;;;5075662;28;20030;-41
2021/12/04 06:40:26;;;;;;;8.52;4.38;;;5.50;99.90;;;;;;5082990;28;20024;-41
2021/12/04 06:42:54;;;;;;;7.38;4.40;;;5.50;99.90;;;;;;5096133;28;20526;-39
2021/12/04 06:45:21;;;;;;;9.68;5.00;;;5.50;99.90;;;;;;5095782;28;20024;-40
2021/12/04 06:48:34;;;;;;;8.10;3.78;;;5.50;99.90;;;;;;5094683;28;20020;-41
2021/12/04 06:50:43;;;;;;;10.00;4.45;;;5.50;99.90;;;;;;5089436;28;20082;-41
2021/12/04 06:53:33;;;;;;;8.95;4.05;;;5.50;99.90;;;;;;5094486;28;20119;-41
2021/12/04 06:56:01;;;;;;;9.18;4.55;;;5.50;99.90;;;;;;5094574;28;20050;-41
2021/12/04 06:58:28;;;;;;;9.95;5.05;;;5.50;99.90;;;;;;5085872;28;20071;-41
2021/12/04 07:00:54;;;;;;;10.00;4.97;;;5.50;99.90;;;;;;5086569;28;20035;-41
2021/12/04 07:03:20;;;;;;;9.63;4.22;;;5.50;99.90;;;;;;5093953;28;20463;-41
2021/12/04 07:05:46;;;;;;;9.70;4.20;;;5.50;99.90;;;;;;5082763;28;20017;-42
2021/12/04 07:08:13;;;;;;;8.48;3.78;;;5.50;99.90;;;;;;5094707;28;20044;-43
2021/12/04 07:10:39;;;;;;;11.68;4.55;;;5.50;99.90;;;;;;5083051;28;20040;-42
2021/12/04 07:13:05;;;;;;;11.32;4.55;;;5.50;99.90;;;;;;5074758;28;20052;-40
2021/12/04 07:15:31;;;;;;;6.57;4.53;;;5.50;99.90;;;;;;5077204;28;20059;-41
2021/12/04 07:17:59;;;;;;;9.40;4.80;;;5.50;99.90;;;;;;5092659;28;20062;-40
2021/12/04 07:20:25;;;;;;;10.80;4.80;;;5.50;99.90;;;;;;5094447;28;20118;-42
2021/12/04 07:22:51;;;;;;;7.90;4.07;;;5.50;99.90;;;;;;5093825;28;20024;-40
2021/12/04 07:25:17;;;;;;;9.10;3.88;;;5.50;99.90;;;;;;5090195;28;20028;-41
2021/12/04 07:27:42;;;;;;;8.65;3.97;;;5.50;99.90;;;;;;5074246;28;20077;-41
2021/12/04 07:30:09;;;;;;;7.70;4.40;;;5.50;99.90;;;;;;5073798;28;20025;-39
2021/12/04 07:32:35;;;;;;;6.75;4.15;;;5.50;99.90;;;;;;5074069;28;20027;-40
2021/12/04 07:35:02;;;;;;;7.60;3.63;;;5.50;99.90;;;;;;5060432;28;20039;-40
2021/12/04 07:37:27;;;;;;;8.38;3.95;;;5.50;99.90;;;;;;5094118;28;20512;-41
2021/12/04 07:39:53;;;;;;;7.65;4.00;;;5.50;99.90;;;;;;5093479;28;20019;-40
2021/12/04 07:42:19;;;;;;;6.90;4.03;;;5.50;99.90;;;;;;5093151;28;20056;-40
2021/12/04 07:44:45;;;;;;;7.25;3.45;;;5.60;99.90;;;;;;5093420;28;20108;-40
2021/12/04 07:47:10;;;;;;;8.68;4.13;;;5.60;99.90;;;;;;5093221;28;20028;-40
2021/12/04 07:49:39;;;;;;;8.15;3.70;;;5.60;99.90;;;;;;5083033;28;20024;-40
2021/12/04 07:52:06;;;;;;;8.52;3.53;;;5.60;99.90;;;;;;5091701;28;20505;-40
2021/12/04 07:54:32;;;;;;;6.15;2.78;;;5.60;99.90;;;;;;5093715;28;20016;-40
2021/12/04 07:56:57;;;;;;;8.77;3.50;;;5.60;99.90;;;;;;5092794;28;20024;-41
2021/12/04 07:59:24;;;;;;;8.38;3.92;;;5.60;99.90;;;;;;5093491;28;20024;-40
2021/12/04 08:01:50;;;;;;;7.82;4.10;;;5.60;99.90;;;;;;5093129;28;20114;-40
2021/12/04 08:04:15;;;;;;;7.88;4.35;;;5.60;99.90;;;;;;5092653;28;20099;-41
2021/12/04 08:06:41;;;;;;;9.27;5.15;;;5.60;99.90;;;;;;5092775;28;20540;-41
2021/12/04 08:09:07;;;;;;;7.50;4.40;;;5.60;99.90;;;;;;5084618;28;20029;-41
2021/12/04 08:11:33;;;;;;;11.45;4.75;;;5.60;99.90;;;;;;5091008;28;20024;-43
2021/12/04 08:13:59;;;;;;;11.88;4.45;;;5.60;99.90;;;;;;5093110;28;20028;-40
2021/12/04 08:16:25;;;;;;;9.07;4.65;;;5.60;99.90;;;;;;5092333;28;20111;-42
2021/12/04 08:18:54;;;;;;;7.82;4.18;;;5.70;99.90;;;;;;5089645;28;20028;-39
2021/12/04 08:21:21;;;;;;;9.00;5.30;;;5.60;99.90;;;;;;5093017;28;20051;-41
2021/12/04 08:23:48;;;;;;;10.98;4.90;;;5.60;99.90;;;;;;5092752;28;20016;-40
2021/12/04 08:26:14;;;;;;;12.13;5.28;;;5.70;99.90;;;;;;5092338;28;20020;-39
2021/12/04 08:28:40;;;;;;;12.13;5.15;;;5.60;99.90;;;;;;5092701;28;20031;-40
2021/12/04 08:31:06;;;;;;;11.93;5.05;;;5.70;99.90;;;;;;5093148;28;20529;-39
2021/12/04 08:33:31;;;;;;;12.35;5.53;;;5.70;99.90;;;;;;5093277;28;20020;-40
2021/12/04 08:35:57;;;;;;;12.80;5.50;;;5.70;99.90;;;;;;5092999;28;20550;-42
2021/12/04 08:38:23;;;;;;;13.57;5.88;;;5.70;99.90;;;;;;5092815;28;20024;-41
2021/12/04 08:40:49;;;;;;;11.38;6.25;;;5.70;99.90;;;;;;5092886;28;20016;-40
2021/12/04 08:43:15;;;;;;;12.13;5.38;;;5.70;99.90;;;;;;5093201;28;20459;-41
2021/12/04 08:45:42;;;;;;;10.95;5.10;;;5.70;99.90;;;;;;5091722;28;20031;-44
2021/12/04 08:48:08;;;;;;;24.88;9.32;;;5.80;99.90;;;;;;5093170;28;20020;-40
2021/12/04 08:50:35;;;;;;;29.10;11.80;;;5.80;99.90;;;;;;5092749;28;20012;-40
2021/12/04 08:53:02;;;;;;;12.18;6.28;;;5.80;99.90;;;;;;5092529;28;20031;-40
2021/12/04 08:55:35;;;;;;;13.43;5.43;;;5.80;99.90;;;;;;5079361;28;20083;-40
2021/12/04 08:58:01;;;;;;;12.25;5.47;;;5.80;99.90;;;;;;5088987;28;20028;-41
2021/12/04 09:00:50;;;;;;;13.07;6.53;;;5.90;99.90;;;;;;5080064;28;20032;-39
2021/12/04 09:03:19;;;;;;;15.07;6.72;;;5.90;99.90;;;;;;5089630;28;20601;-41
2021/12/04 09:05:44;;;;;;;;;;;5.90;99.90;;;;;;5092639;28;20015;-41
2021/12/04 09:08:12;;;;;;;13.18;5.43;;;5.90;99.90;;;;;;5079901;28;19932;-41
2021/12/04 09:10:41;;;;;;;10.27;5.35;;;6.00;99.90;;;;;;5090159;28;20020;-43
2021/12/04 09:13:08;;;;;;;12.07;4.32;;;6.00;99.90;;;;;;5091545;28;20046;-39
2021/12/04 09:15:35;;;;;;;10.43;5.43;;;6.00;99.90;;;;;;5090688;28;20016;-41
2021/12/04 09:18:01;;;;;;;10.27;4.60;;;6.00;99.90;;;;;;5087197;28;20023;-41
2021/12/04 09:20:29;;;;;;;13.40;5.93;;;6.00;99.90;;;;;;5090057;28;20032;-40
2021/12/04 09:22:55;;;;;;;10.70;4.97;;;6.10;99.90;;;;;;5091119;28;20032;-41
2021/12/04 09:25:23;;;;;;;13.88;5.57;;;6.10;99.90;;;;;;5091048;28;20020;-41
2021/12/04 10:00:39;;;;;;;11.15;4.90;;;6.20;99.90;;;;;;5091473;28;20039;-40
2021/12/04 10:19:30;;;;;;;15.13;7.47;;;6.20;99.90;;;;;;5089837;28;20031;-39
2021/12/04 10:33:27;;;;;;;13.82;5.65;;;6.30;99.90;;;;;;5093692;28;20097;-40
2021/12/04 10:35:53;;;;;;;15.18;7.32;;;6.40;99.90;;;;;;5092581;28;20024;-40
2021/12/04 10:38:21;;;;;;;10.27;5.85;;;6.40;99.90;;;;;;5094360;28;20055;-41
2021/12/04 10:40:50;;;;;;;12.90;5.65;;;6.40;99.90;;;;;;5094785;28;20042;-39
2021/12/04 10:43:26;;;;;;;12.27;5.53;;;6.50;99.90;;;;;;5094884;28;20020;-40
2021/12/04 10:45:56;;;;;;;12.95;5.00;;;6.50;99.90;;;;;;5094263;28;20016;-40
2021/12/04 10:48:26;;;;;;;10.05;5.15;;;6.50;99.90;;;;;;5092272;28;20397;-40
2021/12/04 10:53:33;;;;;;;14.40;6.47;;;6.40;99.90;;;;;;5092658;28;20028;-41
2021/12/04 11:04:16;;;;;;;15.02;5.25;;;6.40;99.90;;;;;;5085137;28;20050;-40
2021/12/04 11:39:04;;;;;;;20.17;8.05;;;6.70;99.90;;;;;;5075495;28;20471;-41
2021/12/04 11:46:44;;;;;;;20.90;8.82;;;6.70;99.90;;;;;;5075281;28;20136;-40
2021/12/04 11:49:17;;;;;;;21.05;8.95;;;6.70;99.90;;;;;;5082580;28;20440;-40
2021/12/04 11:51:57;;;;;;;21.70;10.18;;;6.70;99.90;;;;;;5080917;28;20032;-39
2021/12/04 11:54:29;;;;;;;20.08;8.35;;;6.80;99.90;;;;;;5082804;28;20356;-40
2021/12/04 11:57:10;;;;;;;18.13;8.95;;;6.70;99.90;;;;;;5073165;28;20537;-41
2021/12/04 11:59:38;;;;;;;20.27;9.02;;;6.70;99.90;;;;;;5073589;28;20035;-40
2021/12/04 12:02:08;;;;;;;30.27;12.27;;;6.70;99.90;;;;;;5073755;28;20120;-42
2021/12/04 12:04:38;;;;;;;22.92;9.50;;;6.70;99.90;;;;;;5073791;28;20416;-40
2021/12/04 12:07:12;;;;;;;26.38;11.82;;;6.60;99.90;;;;;;5073615;28;20045;-40
2021/12/04 12:09:39;;;;;;;27.25;12.00;;;6.70;99.90;;;;;;5075418;28;20553;-40
2021/12/04 12:12:07;;;;;;;22.83;10.48;;;6.70;99.90;;;;;;5094002;28;20028;-39
2021/12/04 12:14:50;;;;;;;26.75;11.57;;;6.70;99.90;;;;;;5093748;28;20344;-41
2021/12/04 12:17:37;;;;;;;36.85;16.75;;;6.70;99.90;;;;;;5093412;28;20119;-40
2021/12/04 12:20:11;;;;;;;30.95;11.48;;;6.70;99.90;;;;;;5081770;28;20039;-40
2021/12/04 12:23:12;;;;;;;33.55;11.85;;;6.70;99.90;;;;;;5081920;28;20036;-40
2021/12/04 12:37:24;;;;;;;26.73;9.47;;;6.70;99.90;;;;;;5084301;28;20352;-40
2021/12/04 12:40:03;;;;;;;31.52;10.15;;;6.70;99.90;;;;;;5082813;28;20028;-39
2021/12/04 12:42:32;;;;;;;28.35;10.52;;;6.70;99.90;;;;;;5072931;28;20502;-40
2021/12/04 12:45:17;;;;;;;25.80;11.52;;;6.70;99.90;;;;;;5076074;28;20024;-40
2021/12/04 12:48:05;;;;;;;31.63;11.73;;;6.60;99.90;;;;;;5090055;28;20035;-40
2021/12/04 12:50:40;;;;;;;33.00;9.93;;;6.50;99.90;;;;;;5090171;28;20012;-39
2021/12/04 12:53:19;;;;;;;27.98;9.23;;;6.50;99.90;;;;;;5076935;28;20028;-41
2021/12/04 12:55:47;;;;;;;43.72;18.83;;;6.60;99.90;;;;;;5089815;28;20032;-40
2021/12/04 12:58:13;;;;;;;29.90;11.73;;;6.60;99.90;;;;;;5090398;28;20020;-41
2021/12/04 13:11:56;;;;;;;30.23;11.23;;;6.70;99.90;;;;;;5081730;28;20113;-40
2021/12/04 13:14:27;;;;;;;31.73;14.20;;;6.70;99.90;;;;;;5085564;28;20077;-40
2021/12/04 13:16:58;;;;;;;32.40;18.35;;;6.70;99.90;;;;;;5083518;28;20107;-42
2021/12/04 13:19:25;;;;;;;32.30;15.80;;;6.70;99.90;;;;;;5089766;28;20032;-41
2021/12/04 13:21:53;;;;;;;26.95;11.52;;;6.70;99.90;;;;;;5087036;28;20064;-41
2021/12/04 13:24:23;;;;;;;27.15;12.48;;;6.60;99.90;;;;;;5076615;28;20032;-39
2021/12/04 13:26:51;;;;;;;29.67;10.30;;;6.60;99.90;;;;;;5080607;28;20032;-40
2021/12/04 13:29:20;;;;;;;23.58;10.98;;;6.70;99.90;;;;;;5097471;28;20466;-41
2021/12/04 13:31:46;;;;;;;25.13;11.48;;;6.70;99.90;;;;;;5087308;28;20142;-41
2021/12/04 13:34:14;;;;;;;33.75;13.80;;;6.60;99.90;;;;;;5089957;28;20546;-40
2021/12/04 13:36:45;;;;;;;40.03;14.65;;;6.60;99.90;;;;;;5059871;28;20353;-40
2021/12/04 13:39:13;;;;;;;40.90;15.02;;;6.70;99.90;;;;;;5085029;28;20024;-39
2021/12/04 13:41:41;;;;;;;46.53;19.08;;;6.60;99.90;;;;;;5083999;28;20111;-40
2021/12/04 13:44:09;;;;;;;39.10;16.23;;;6.60;99.90;;;;;;5089392;28;20038;-41
2021/12/04 13:46:43;;;;;;;37.47;15.93;;;6.60;99.90;;;;;;5085015;28;20020;-43
2021/12/04 13:49:11;;;;;;;34.25;14.05;;;6.60;99.90;;;;;;5081357;28;20060;-41
2021/12/04 13:51:39;;;;;;;34.83;16.00;;;6.60;99.90;;;;;;5091090;28;20035;-46
2021/12/04 13:54:06;;;;;;;56.38;25.42;;;6.60;99.90;;;;;;5079271;28;20030;-43
2021/12/04 13:56:33;;;;;;;44.72;16.85;;;6.60;99.90;;;;;;5087935;28;20094;-40
2021/12/04 13:59:02;;;;;;;38.60;16.10;;;6.60;99.90;;;;;;5077531;28;20035;-40
2021/12/04 14:01:28;;;;;;;;;;;6.50;99.90;;;;;;5093158;28;20063;-40
2021/12/04 14:04:03;;;;;;;30.27;14.45;;;6.60;99.90;;;;;;5113547;28;19908;-40
2021/12/04 14:06:29;;;;;;;37.03;16.08;;;6.50;99.90;;;;;;5089084;28;20024;-40
2021/12/04 14:09:02;;;;;;;37.72;14.57;;;6.50;99.90;;;;;;5095267;28;20028;-40
2021/12/04 14:11:28;;;;;;;30.45;11.57;;;6.60;99.90;;;;;;5095758;28;20469;-40
2021/12/04 14:13:54;;;;;;;25.48;9.98;;;6.60;99.90;;;;;;5094357;28;20487;-41
2021/12/04 14:16:27;;;;;;;36.95;14.00;;;6.50;99.90;;;;;;5082317;28;20032;-42
2021/12/04 14:18:53;;;;;;;30.35;10.88;;;6.50;99.90;;;;;;5080313;28;20455;-40
2021/12/04 14:21:19;;;;;;;37.72;10.98;;;6.50;99.90;;;;;;5075897;28;20482;-40
2021/12/04 14:23:48;;;;;;;28.10;10.15;;;6.50;99.90;;;;;;5080963;28;20048;-40
2021/12/04 14:26:15;;;;;;;28.45;11.48;;;6.50;99.90;;;;;;5096274;28;20028;-40
2021/12/04 14:28:43;;;;;;;34.72;12.35;;;6.50;99.90;;;;;;5076572;28;20033;-41
2021/12/04 14:31:10;;;;;;;29.58;10.38;;;6.40;99.90;;;;;;5079627;28;20058;-40
2021/12/04 14:33:39;;;;;;;33.58;10.70;;;6.40;99.90;;;;;;5095081;28;20027;-40
2021/12/04 14:36:06;;;;;;;35.78;12.07;;;6.50;99.90;;;;;;5095504;28;20020;-39
2021/12/04 14:38:32;;;;;;;30.35;10.50;;;6.40;99.90;;;;;;5094535;28;20058;-40
2021/12/04 14:41:00;;;;;;;39.10;12.27;;;6.40;99.90;;;;;;5092492;28;20078;-39
2021/12/04 14:43:28;;;;;;;29.58;10.88;;;6.40;99.90;;;;;;5091942;28;20089;-41
2021/12/04 14:45:56;;;;;;;31.08;11.07;;;6.40;99.90;;;;;;5092511;28;20082;-47
2021/12/04 14:48:33;;;;;;;28.40;11.17;;;6.40;99.90;;;;;;5090576;28;20121;-40
2021/12/04 14:51:05;;;;;;;29.10;10.38;;;6.30;99.90;;;;;;5092537;28;20262;-42
2021/12/04 14:53:33;;;;;;;28.48;10.05;;;6.40;99.90;;;;;;5092886;28;20024;-41
2021/12/04 14:56:02;;;;;;;24.63;10.07;;;6.40;99.90;;;;;;5094762;28;20067;-41
2021/12/04 14:58:28;;;;;;;22.65;9.82;;;6.30;99.90;;;;;;5094746;28;20020;-39
2021/12/04 15:00:59;;;;;;;27.63;10.90;;;6.30;99.90;;;;;;5084008;28;20017;-42
2021/12/04 15:03:48;;;;;;;32.38;11.05;;;6.30;99.90;;;;;;5075202;28;20028;-40
2021/12/04 15:06:16;;;;;;;24.65;9.65;;;6.30;99.90;;;;;;5074428;28;20024;-40
2021/12/04 15:08:49;;;;;;;26.20;11.27;;;6.30;99.90;;;;;;5074298;28;20028;-40
2021/12/04 15:11:29;;;;;;;34.50;11.15;;;6.30;99.90;;;;;;5074874;28;20025;-40
2021/12/04 15:14:07;;;;;;;33.55;10.18;;;6.30;99.90;;;;;;5073663;28;20020;-40
2021/12/04 15:16:46;;;;;;;30.67;12.18;;;6.30;99.90;;;;;;5074804;28;20060;-41
2021/12/04 15:19:19;;;;;;;23.83;9.10;;;6.30;99.90;;;;;;5074258;28;20106;-39
2021/12/04 15:21:52;;;;;;;30.35;10.15;;;6.30;99.90;;;;;;5084894;28;20375;-40
2021/12/04 15:24:23;;;;;;;31.77;11.38;;;6.30;99.90;;;;;;5095033;28;20032;-40
2021/12/04 15:26:55;;;;;;;31.77;10.90;;;6.30;99.90;;;;;;5093888;28;20024;-40
2021/12/04 15:29:27;;;;;;;32.15;12.23;;;6.30;99.90;;;;;;5094665;28;20024;-39
2021/12/04 15:31:55;;;;;;;34.70;11.10;;;6.30;99.90;;;;;;5094160;28;20154;-39
2021/12/04 15:34:33;;;;;;;26.33;9.88;;;6.30;99.90;;;;;;5094063;28;20130;-39
2021/12/04 15:37:03;;;;;;;28.17;11.52;;;6.30;99.90;;;;;;5094301;28;20030;-40
2021/12/04 15:39:34;;;;;;;30.50;10.60;;;6.30;99.90;;;;;;5094377;28;20471;-41
2021/12/04 15:42:23;;;;;;;26.30;10.55;;;6.30;99.90;;;;;;5093681;28;20028;-39
2021/12/04 15:47:49;;;;;;;24.80;10.07;;;6.30;99.90;;;;;;5093778;28;20049;-41
2021/12/04 15:55:50;;;;;;;25.33;10.32;;;6.30;99.90;;;;;;5077508;28;20036;-40
2021/12/04 15:58:18;;;;;;;25.50;9.85;;;6.30;99.90;;;;;;5093946;28;20427;-41
2021/12/04 16:00:52;;;;;;;28.20;10.48;;;6.30;99.90;;;;;;5093534;28;20471;-41
2021/12/04 16:03:19;;;;;;;25.77;11.75;;;6.30;99.90;;;;;;5093534;28;20040;-40
2021/12/04 16:05:53;;;;;;;29.08;10.68;;;6.30;99.90;;;;;;5093706;28;20070;-39
2021/12/04 16:08:23;;;;;;;31.35;11.18;;;6.30;99.90;;;;;;5083371;28;20364;-41
2021/12/04 16:10:51;;;;;;;19.45;8.98;;;6.30;99.90;;;;;;5073066;28;20021;-41
2021/12/04 16:13:37;;;;;;;27.98;10.60;;;6.30;99.90;;;;;;5073424;28;20024;-40
2021/12/04 16:16:13;;;;;;;25.40;10.48;;;6.30;99.90;;;;;;5072854;28;20028;-39